sensor_id;sensor_type;location;lat;lon;timestamp;pressure;altitude;pressure_sealevel;temperature;humidity
5550;BME280;2798;42.716;23.256;2023-12-29T00:01:53;95402.97;;;5.46;75.63
5550;BME280;2798;42.716;23.256;2023-12-29T00:04:19;95402.84;;;5.49;75.02
5550;BME280;2798;42.716;23.256;2023-12-29T00:06:45;95391.53;;;5.34;75.94
5550;BME280;2798;42.716;23.256;2023-12-29T00:09:10;95391.66;;;5.31;76.51
5550;BME280;2798;42.716;23.256;2023-12-29T00:11:36;95381.97;;;5.39;75.71
5550;BME280;2798;42.716;23.256;2023-12-29T00:14:01;95380.44;;;5.35;76.06
5550;BME280;2798;42.716;23.256;2023-12-29T00:16:27;95384.69;;;5.35;76.86
5550;BME280;2798;42.716;23.256;2023-12-29T00:18:52;95393.69;;;5.43;76.01
5550;BME280;2798;42.716;23.256;2023-12-29T00:21:18;95389.56;;;5.41;76.40
5550;BME280;2798;42.716;23.256;2023-12-29T00:23:43;95392.34;;;5.35;76.59
5550;BME280;2798;42.716;23.256;2023-12-29T00:26:09;95384.31;;;5.44;75.53
5550;BME280;2798;42.716;23.256;2023-12-29T00:28:34;95381.31;;;5.55;75.23
5550;BME280;2798;42.716;23.256;2023-12-29T00:31:01;95374.22;;;5.41;76.02
5550;BME280;2798;42.716;23.256;2023-12-29T00:33:27;95376.84;;;5.39;75.21
5550;BME280;2798;42.716;23.256;2023-12-29T00:35:52;95375.56;;;5.29;74.79
5550;BME280;2798;42.716;23.256;2023-12-29T00:38:17;95364.84;;;5.21;75.37
5550;BME280;2798;42.716;23.256;2023-12-29T00:40:43;95368.16;;;5.23;74.85
5550;BME280;2798;42.716;23.256;2023-12-29T00:43:08;95368.22;;;5.21;75.59
5550;BME280;2798;42.716;23.256;2023-12-29T00:45:33;95382.88;;;5.16;75.72
5550;BME280;2798;42.716;23.256;2023-12-29T00:48:01;95393.06;;;5.17;74.62
5550;BME280;2798;42.716;23.256;2023-12-29T00:50:26;95379.13;;;5.04;75.08
5550;BME280;2798;42.716;23.256;2023-12-29T00:52:52;95376.88;;;4.96;75.43
5550;BME280;2798;42.716;23.256;2023-12-29T00:55:17;95385.13;;;5.03;75.06
5550;BME280;2798;42.716;23.256;2023-12-29T00:57:43;95373.44;;;5.18;74.57
5550;BME280;2798;42.716;23.256;2023-12-29T01:00:10;95374.38;;;4.94;75.61
5550;BME280;2798;42.716;23.256;2023-12-29T01:02:36;95371.59;;;5.01;74.90
5550;BME280;2798;42.716;23.256;2023-12-29T01:05:01;95374.06;;;5.02;75.58
5550;BME280;2798;42.716;23.256;2023-12-29T01:07:26;95372.13;;;4.87;76.12
5550;BME280;2798;42.716;23.256;2023-12-29T01:09:51;95374.13;;;5.01;75.50
5550;BME280;2798;42.716;23.256;2023-12-29T01:12:17;95380.94;;;5.00;74.74
5550;BME280;2798;42.716;23.256;2023-12-29T01:14:42;95375.63;;;4.84;75.71
5550;BME280;2798;42.716;23.256;2023-12-29T01:17:07;95382.28;;;4.88;76.22
5550;BME280;2798;42.716;23.256;2023-12-29T01:19:33;95380.34;;;4.93;75.58
5550;BME280;2798;42.716;23.256;2023-12-29T01:21:58;95384.13;;;4.85;76.06
5550;BME280;2798;42.716;23.256;2023-12-29T01:24:23;95380.66;;;4.86;76.13
5550;BME280;2798;42.716;23.256;2023-12-29T01:26:49;95382.84;;;4.95;76.19
5550;BME280;2798;42.716;23.256;2023-12-29T01:29:14;95374.56;;;4.90;76.33
5550;BME280;2798;42.716;23.256;2023-12-29T01:31:40;95382.16;;;4.91;76.70
5550;BME280;2798;42.716;23.256;2023-12-29T01:34:05;95378.59;;;4.95;75.86
5550;BME280;2798;42.716;23.256;2023-12-29T01:36:30;95378.78;;;4.91;76.44
5550;BME280;2798;42.716;23.256;2023-12-29T01:38:56;95385.63;;;4.89;76.67
5550;BME280;2798;42.716;23.256;2023-12-29T01:41:22;95385.34;;;4.97;76.03
5550;BME280;2798;42.716;23.256;2023-12-29T01:46:25;95372.53;;;4.98;76.69
5550;BME280;2798;42.716;23.256;2023-12-29T01:48:51;95369.22;;;4.96;75.81
5550;BME280;2798;42.716;23.256;2023-12-29T01:51:16;95371.19;;;4.89;75.45
5550;BME280;2798;42.716;23.256;2023-12-29T01:53:42;95362.34;;;4.76;75.70
5550;BME280;2798;42.716;23.256;2023-12-29T01:56:08;95369.72;;;4.84;75.52
5550;BME280;2798;42.716;23.256;2023-12-29T01:58:33;95369.88;;;4.79;75.76
5550;BME280;2798;42.716;23.256;2023-12-29T02:01:00;95366.94;;;4.67;76.79
5550;BME280;2798;42.716;23.256;2023-12-29T02:03:25;95361.41;;;4.78;76.79
5550;BME280;2798;42.716;23.256;2023-12-29T02:05:50;95363.34;;;4.72;77.21
5550;BME280;2798;42.716;23.256;2023-12-29T02:08:18;95352.88;;;4.57;77.96
5550;BME280;2798;42.716;23.256;2023-12-29T02:10:43;95348.19;;;4.68;76.81
5550;BME280;2798;42.716;23.256;2023-12-29T02:13:09;95344.84;;;4.66;77.31
5550;BME280;2798;42.716;23.256;2023-12-29T02:15:34;95335.91;;;4.56;77.42
5550;BME280;2798;42.716;23.256;2023-12-29T02:18:01;95333.06;;;4.64;77.54
5550;BME280;2798;42.716;23.256;2023-12-29T02:20:27;95333.00;;;4.65;77.50
5550;BME280;2798;42.716;23.256;2023-12-29T02:22:53;95324.88;;;4.55;77.75
5550;BME280;2798;42.716;23.256;2023-12-29T02:25:18;95327.25;;;4.60;77.93
5550;BME280;2798;42.716;23.256;2023-12-29T02:27:51;95326.53;;;4.56;78.13
5550;BME280;2798;42.716;23.256;2023-12-29T02:32:58;95330.69;;;4.59;78.60
5550;BME280;2798;42.716;23.256;2023-12-29T02:35:25;95324.63;;;4.62;77.86
5550;BME280;2798;42.716;23.256;2023-12-29T02:37:52;95319.31;;;4.45;77.78
5550;BME280;2798;42.716;23.256;2023-12-29T02:40:17;95317.22;;;4.55;78.30
5550;BME280;2798;42.716;23.256;2023-12-29T02:42:49;95312.72;;;4.62;77.48
5550;BME280;2798;42.716;23.256;2023-12-29T02:45:15;95314.09;;;4.49;78.20
5550;BME280;2798;42.716;23.256;2023-12-29T02:47:41;95317.41;;;4.51;77.78
5550;BME280;2798;42.716;23.256;2023-12-29T02:50:07;95313.28;;;4.48;76.65
5550;BME280;2798;42.716;23.256;2023-12-29T02:52:32;95306.84;;;4.38;76.72
5550;BME280;2798;42.716;23.256;2023-12-29T02:54:57;95306.97;;;4.35;76.35
5550;BME280;2798;42.716;23.256;2023-12-29T02:57:23;95313.91;;;4.31;76.80
5550;BME280;2798;42.716;23.256;2023-12-29T02:59:48;95304.91;;;4.22;77.44
5550;BME280;2798;42.716;23.256;2023-12-29T03:02:13;95295.81;;;4.15;77.48
5550;BME280;2798;42.716;23.256;2023-12-29T03:04:39;95296.25;;;4.26;76.58
5550;BME280;2798;42.716;23.256;2023-12-29T03:07:04;95279.38;;;4.24;77.16
5550;BME280;2798;42.716;23.256;2023-12-29T03:09:29;95288.13;;;4.16;77.35
5550;BME280;2798;42.716;23.256;2023-12-29T03:11:55;95281.78;;;4.27;77.23
5550;BME280;2798;42.716;23.256;2023-12-29T03:14:20;95286.00;;;4.28;76.79
5550;BME280;2798;42.716;23.256;2023-12-29T03:16:45;95280.47;;;4.16;77.18
5550;BME280;2798;42.716;23.256;2023-12-29T03:19:11;95288.91;;;4.18;76.34
5550;BME280;2798;42.716;23.256;2023-12-29T03:21:36;95295.00;;;4.37;75.20
5550;BME280;2798;42.716;23.256;2023-12-29T03:24:01;95294.00;;;4.18;76.67
5550;BME280;2798;42.716;23.256;2023-12-29T03:26:27;95281.19;;;4.20;77.60
5550;BME280;2798;42.716;23.256;2023-12-29T03:28:52;95274.97;;;4.27;76.60
5550;BME280;2798;42.716;23.256;2023-12-29T03:31:18;95276.03;;;4.22;76.75
5550;BME280;2798;42.716;23.256;2023-12-29T03:33:43;95274.66;;;4.13;77.80
5550;BME280;2798;42.716;23.256;2023-12-29T03:36:09;95273.78;;;4.14;76.79
5550;BME280;2798;42.716;23.256;2023-12-29T03:38:34;95286.47;;;4.15;76.96
5550;BME280;2798;42.716;23.256;2023-12-29T03:41:01;95288.69;;;4.01;77.00
5550;BME280;2798;42.716;23.256;2023-12-29T03:43:26;95288.47;;;4.07;76.31
5550;BME280;2798;42.716;23.256;2023-12-29T03:45:51;95288.53;;;4.05;76.69
5550;BME280;2798;42.716;23.256;2023-12-29T03:48:17;95287.25;;;3.93;77.89
5550;BME280;2798;42.716;23.256;2023-12-29T03:50:42;95290.97;;;4.08;76.65
5550;BME280;2798;42.716;23.256;2023-12-29T03:53:08;95292.03;;;4.03;76.75
5550;BME280;2798;42.716;23.256;2023-12-29T03:55:33;95299.91;;;3.97;77.34
5550;BME280;2798;42.716;23.256;2023-12-29T03:57:58;95293.56;;;4.07;77.61
5550;BME280;2798;42.716;23.256;2023-12-29T04:00:25;95291.91;;;4.06;77.91
5550;BME280;2798;42.716;23.256;2023-12-29T04:02:50;95289.53;;;4.01;77.50
5550;BME280;2798;42.716;23.256;2023-12-29T04:05:15;95282.72;;;4.02;78.01
5550;BME280;2798;42.716;23.256;2023-12-29T04:07:41;95286.91;;;4.27;76.37
5550;BME280;2798;42.716;23.256;2023-12-29T04:10:06;95295.03;;;4.13;77.47
5550;BME280;2798;42.716;23.256;2023-12-29T04:12:32;95289.25;;;4.09;77.16
5550;BME280;2798;42.716;23.256;2023-12-29T04:14:57;95214.50;;;3.64;76.74
5550;BME280;2798;42.716;23.256;2023-12-29T04:17:23;95289.13;;;4.12;76.76
5550;BME280;2798;42.716;23.256;2023-12-29T04:19:48;95285.22;;;4.26;75.92
5550;BME280;2798;42.716;23.256;2023-12-29T04:22:13;95283.75;;;4.20;75.52
5550;BME280;2798;42.716;23.256;2023-12-29T04:24:39;95287.56;;;4.08;76.52
5550;BME280;2798;42.716;23.256;2023-12-29T04:27:05;95274.38;;;3.98;76.32
5550;BME280;2798;42.716;23.256;2023-12-29T04:29:30;95275.06;;;4.02;75.65
5550;BME280;2798;42.716;23.256;2023-12-29T04:31:55;95285.53;;;3.94;76.32
5550;BME280;2798;42.716;23.256;2023-12-29T04:34:21;95291.03;;;3.83;76.84
5550;BME280;2798;42.716;23.256;2023-12-29T04:36:46;95287.31;;;3.92;75.45
5550;BME280;2798;42.716;23.256;2023-12-29T04:39:12;95290.19;;;3.82;75.84
5550;BME280;2798;42.716;23.256;2023-12-29T04:41:37;95297.22;;;3.76;76.61
5550;BME280;2798;42.716;23.256;2023-12-29T04:44:02;95293.66;;;3.81;75.33
5550;BME280;2798;42.716;23.256;2023-12-29T04:46:27;95295.56;;;3.75;76.07
5550;BME280;2798;42.716;23.256;2023-12-29T04:48:53;95295.56;;;3.99;75.74
5550;BME280;2798;42.716;23.256;2023-12-29T04:51:18;95290.69;;;3.92;74.91
5550;BME280;2798;42.716;23.256;2023-12-29T04:53:44;95292.00;;;3.80;75.56
5550;BME280;2798;42.716;23.256;2023-12-29T04:56:09;95280.34;;;3.73;75.84
5550;BME280;2798;42.716;23.256;2023-12-29T04:58:35;95279.47;;;3.74;74.92
5550;BME280;2798;42.716;23.256;2023-12-29T05:01:00;95283.19;;;3.65;75.87
5550;BME280;2798;42.716;23.256;2023-12-29T05:03:26;95304.53;;;3.61;76.44
5550;BME280;2798;42.716;23.256;2023-12-29T05:05:51;95276.44;;;3.64;75.79
5550;BME280;2798;42.716;23.256;2023-12-29T05:08:16;95283.63;;;3.53;77.03
5550;BME280;2798;42.716;23.256;2023-12-29T05:10:42;95282.91;;;3.49;77.79
5550;BME280;2798;42.716;23.256;2023-12-29T05:13:07;95281.16;;;3.51;76.08
5550;BME280;2798;42.716;23.256;2023-12-29T05:15:32;95285.63;;;3.44;76.44
5550;BME280;2798;42.716;23.256;2023-12-29T05:17:58;95286.75;;;3.59;74.31
5550;BME280;2798;42.716;23.256;2023-12-29T05:20:23;95289.25;;;3.37;74.77
5550;BME280;2798;42.716;23.256;2023-12-29T05:22:49;95286.28;;;3.24;74.12
5550;BME280;2798;42.716;23.256;2023-12-29T05:25:14;95291.00;;;3.11;74.67
5550;BME280;2798;42.716;23.256;2023-12-29T05:27:39;95284.22;;;3.10;73.98
5550;BME280;2798;42.716;23.256;2023-12-29T05:30:05;95212.97;;;2.61;75.08
5550;BME280;2798;42.716;23.256;2023-12-29T05:32:31;95276.31;;;2.92;75.72
5550;BME280;2798;42.716;23.256;2023-12-29T05:34:56;95273.63;;;2.97;74.79
5550;BME280;2798;42.716;23.256;2023-12-29T05:37:22;95270.38;;;2.93;76.00
5550;BME280;2798;42.716;23.256;2023-12-29T05:39:47;95280.03;;;2.83;75.91
5550;BME280;2798;42.716;23.256;2023-12-29T05:42:12;95275.50;;;2.92;75.27
5550;BME280;2798;42.716;23.256;2023-12-29T05:44:38;95223.97;;;2.61;75.47
5550;BME280;2798;42.716;23.256;2023-12-29T05:47:04;95284.78;;;2.93;76.78
5550;BME280;2798;42.716;23.256;2023-12-29T05:49:29;95282.84;;;3.01;75.51
5550;BME280;2798;42.716;23.256;2023-12-29T05:51:55;95277.66;;;3.04;75.53
5550;BME280;2798;42.716;23.256;2023-12-29T05:54:20;95274.47;;;2.97;75.38
5550;BME280;2798;42.716;23.256;2023-12-29T05:56:45;95281.16;;;3.00;75.59
5550;BME280;2798;42.716;23.256;2023-12-29T05:59:11;95273.50;;;3.27;74.79
5550;BME280;2798;42.716;23.256;2023-12-29T06:01:36;95274.78;;;3.14;74.93
5550;BME280;2798;42.716;23.256;2023-12-29T06:04:02;95275.81;;;3.08;75.18
5550;BME280;2798;42.716;23.256;2023-12-29T06:06:27;95268.13;;;3.09;74.84
5550;BME280;2798;42.716;23.256;2023-12-29T06:08:52;95272.41;;;3.09;74.95
5550;BME280;2798;42.716;23.256;2023-12-29T06:11:18;95274.38;;;3.01;75.31
5550;BME280;2798;42.716;23.256;2023-12-29T06:13:43;95272.28;;;3.12;74.81
5550;BME280;2798;42.716;23.256;2023-12-29T06:16:08;95271.56;;;3.08;75.53
5550;BME280;2798;42.716;23.256;2023-12-29T06:18:34;95276.22;;;2.95;75.39
5550;BME280;2798;42.716;23.256;2023-12-29T06:21:01;95281.84;;;3.05;75.27
5550;BME280;2798;42.716;23.256;2023-12-29T06:23:26;95284.22;;;3.10;74.88
5550;BME280;2798;42.716;23.256;2023-12-29T06:25:52;95288.03;;;2.98;74.79
5550;BME280;2798;42.716;23.256;2023-12-29T06:28:17;95287.13;;;3.25;73.87
5550;BME280;2798;42.716;23.256;2023-12-29T06:30:42;95284.69;;;3.21;73.68
5550;BME280;2798;42.716;23.256;2023-12-29T06:33:08;95293.75;;;3.03;75.09
5550;BME280;2798;42.716;23.256;2023-12-29T06:35:33;95283.69;;;3.00;75.46
5550;BME280;2798;42.716;23.256;2023-12-29T06:38:01;95285.84;;;3.13;74.21
5550;BME280;2798;42.716;23.256;2023-12-29T06:40:26;95285.97;;;3.08;75.16
5550;BME280;2798;42.716;23.256;2023-12-29T06:42:51;95286.88;;;3.07;75.63
5550;BME280;2798;42.716;23.256;2023-12-29T06:45:17;95289.19;;;3.13;74.43
5550;BME280;2798;42.716;23.256;2023-12-29T06:47:42;95286.59;;;3.15;74.92
5550;BME280;2798;42.716;23.256;2023-12-29T06:50:07;95287.66;;;3.09;75.28
5550;BME280;2798;42.716;23.256;2023-12-29T06:52:37;95286.44;;;3.19;75.55
5550;BME280;2798;42.716;23.256;2023-12-29T06:55:03;95280.44;;;3.22;75.65
5550;BME280;2798;42.716;23.256;2023-12-29T06:57:28;95289.94;;;3.17;75.89
5550;BME280;2798;42.716;23.256;2023-12-29T06:59:53;95293.69;;;3.32;75.86
5550;BME280;2798;42.716;23.256;2023-12-29T07:02:19;95290.81;;;3.41;76.11
5550;BME280;2798;42.716;23.256;2023-12-29T07:04:44;95286.75;;;3.36;75.50
5550;BME280;2798;42.716;23.256;2023-12-29T07:07:09;95290.91;;;3.38;76.29
5550;BME280;2798;42.716;23.256;2023-12-29T07:09:37;95290.88;;;3.40;76.40
5550;BME280;2798;42.716;23.256;2023-12-29T07:12:02;95293.69;;;3.32;75.72
5550;BME280;2798;42.716;23.256;2023-12-29T07:14:28;95292.56;;;3.39;75.78
5550;BME280;2798;42.716;23.256;2023-12-29T07:16:53;95290.69;;;3.44;75.22
5550;BME280;2798;42.716;23.256;2023-12-29T07:19:18;95285.94;;;3.35;75.58
5550;BME280;2798;42.716;23.256;2023-12-29T07:21:44;95283.22;;;3.40;75.40
5550;BME280;2798;42.716;23.256;2023-12-29T07:24:09;95269.28;;;3.50;75.98
5550;BME280;2798;42.716;23.256;2023-12-29T07:26:35;95259.94;;;3.51;75.59
5550;BME280;2798;42.716;23.256;2023-12-29T07:29:00;95266.63;;;3.53;76.47
5550;BME280;2798;42.716;23.256;2023-12-29T07:31:25;95274.66;;;3.66;76.75
5550;BME280;2798;42.716;23.256;2023-12-29T07:33:51;95295.63;;;3.73;77.07
5550;BME280;2798;42.716;23.256;2023-12-29T07:36:16;95271.19;;;3.69;77.32
5550;BME280;2798;42.716;23.256;2023-12-29T07:38:42;95302.00;;;3.85;77.02
5550;BME280;2798;42.716;23.256;2023-12-29T07:41:08;95278.19;;;3.86;77.90
5550;BME280;2798;42.716;23.256;2023-12-29T07:43:33;95269.44;;;3.93;76.96
5550;BME280;2798;42.716;23.256;2023-12-29T07:45:59;95273.38;;;4.02;77.17
5550;BME280;2798;42.716;23.256;2023-12-29T07:48:25;95269.91;;;4.03;77.46
5550;BME280;2798;42.716;23.256;2023-12-29T07:50:50;95274.94;;;4.05;75.36
5550;BME280;2798;42.716;23.256;2023-12-29T07:53:15;95307.94;;;4.08;74.88
5550;BME280;2798;42.716;23.256;2023-12-29T07:55:42;95279.56;;;3.95;74.78
5550;BME280;2798;42.716;23.256;2023-12-29T07:58:08;95275.72;;;3.85;76.30
5550;BME280;2798;42.716;23.256;2023-12-29T08:00:35;95277.00;;;3.95;76.97
5550;BME280;2798;42.716;23.256;2023-12-29T08:03:00;95275.47;;;3.91;74.82
5550;BME280;2798;42.716;23.256;2023-12-29T08:05:26;95289.41;;;3.82;75.24
5550;BME280;2798;42.716;23.256;2023-12-29T08:07:51;95292.81;;;3.81;78.56
5550;BME280;2798;42.716;23.256;2023-12-29T08:10:16;95289.06;;;3.91;76.05
5550;BME280;2798;42.716;23.256;2023-12-29T08:12:42;95295.19;;;3.86;75.75
5550;BME280;2798;42.716;23.256;2023-12-29T08:15:07;95283.22;;;3.88;76.95
5550;BME280;2798;42.716;23.256;2023-12-29T08:17:33;95213.13;;;3.55;78.98
5550;BME280;2798;42.716;23.256;2023-12-29T08:19:58;95289.47;;;4.03;77.60
5550;BME280;2798;42.716;23.256;2023-12-29T08:22:23;95294.47;;;4.06;77.66
5550;BME280;2798;42.716;23.256;2023-12-29T08:24:49;95288.47;;;4.07;78.46
5550;BME280;2798;42.716;23.256;2023-12-29T08:27:14;95293.63;;;4.05;79.15
5550;BME280;2798;42.716;23.256;2023-12-29T08:29:39;95290.00;;;4.11;79.30
5550;BME280;2798;42.716;23.256;2023-12-29T08:32:05;95286.47;;;4.15;78.50
5550;BME280;2798;42.716;23.256;2023-12-29T08:34:30;95292.66;;;4.08;78.18
5550;BME280;2798;42.716;23.256;2023-12-29T08:36:56;95290.66;;;4.16;78.33
5550;BME280;2798;42.716;23.256;2023-12-29T08:39:21;95287.25;;;4.17;76.90
5550;BME280;2798;42.716;23.256;2023-12-29T08:41:47;95290.00;;;4.11;77.17
5550;BME280;2798;42.716;23.256;2023-12-29T08:44:14;95288.22;;;4.13;77.90
5550;BME280;2798;42.716;23.256;2023-12-29T08:46:40;95285.50;;;4.18;77.80
5550;BME280;2798;42.716;23.256;2023-12-29T08:49:05;95290.03;;;4.33;76.04
5550;BME280;2798;42.716;23.256;2023-12-29T08:51:30;95294.41;;;4.30;77.59
5550;BME280;2798;42.716;23.256;2023-12-29T08:53:56;95300.00;;;4.40;77.28
5550;BME280;2798;42.716;23.256;2023-12-29T08:56:21;95296.47;;;4.42;76.03
5550;BME280;2798;42.716;23.256;2023-12-29T08:58:47;95288.06;;;4.40;76.98
5550;BME280;2798;42.716;23.256;2023-12-29T09:01:12;95300.53;;;4.48;78.11
5550;BME280;2798;42.716;23.256;2023-12-29T09:03:37;95292.91;;;4.47;76.88
5550;BME280;2798;42.716;23.256;2023-12-29T09:06:03;95296.78;;;4.57;79.39
5550;BME280;2798;42.716;23.256;2023-12-29T09:08:29;95292.22;;;4.65;80.32
5550;BME280;2798;42.716;23.256;2023-12-29T09:10:54;95290.19;;;4.74;80.38
5550;BME280;2798;42.716;23.256;2023-12-29T09:13:20;95282.66;;;4.70;79.18
5550;BME280;2798;42.716;23.256;2023-12-29T09:15:48;95281.63;;;4.75;79.56
5550;BME280;2798;42.716;23.256;2023-12-29T09:18:13;95282.81;;;4.88;80.72
5550;BME280;2798;42.716;23.256;2023-12-29T09:20:38;95277.31;;;4.98;78.36
5550;BME280;2798;42.716;23.256;2023-12-29T09:23:04;95273.88;;;4.99;79.19
5550;BME280;2798;42.716;23.256;2023-12-29T09:25:30;95261.44;;;5.12;79.69
5550;BME280;2798;42.716;23.256;2023-12-29T09:27:55;95257.16;;;5.33;79.30
5550;BME280;2798;42.716;23.256;2023-12-29T09:30:20;95254.47;;;5.36;79.28
5550;BME280;2798;42.716;23.256;2023-12-29T09:32:46;95252.69;;;5.38;79.87
5550;BME280;2798;42.716;23.256;2023-12-29T09:35:11;95256.47;;;5.49;80.35
5550;BME280;2798;42.716;23.256;2023-12-29T09:37:37;95254.56;;;5.54;80.34
5550;BME280;2798;42.716;23.256;2023-12-29T09:40:02;95255.84;;;5.63;79.51
5550;BME280;2798;42.716;23.256;2023-12-29T09:42:28;95254.22;;;5.81;78.17
5550;BME280;2798;42.716;23.256;2023-12-29T09:44:53;95255.19;;;5.78;78.41
5550;BME280;2798;42.716;23.256;2023-12-29T09:47:23;95251.72;;;5.79;78.95
5550;BME280;2798;42.716;23.256;2023-12-29T09:49:48;95252.16;;;5.89;77.76
5550;BME280;2798;42.716;23.256;2023-12-29T09:52:14;95184.91;;;5.50;78.21
5550;BME280;2798;42.716;23.256;2023-12-29T09:54:41;95255.19;;;5.98;78.41
5550;BME280;2798;42.716;23.256;2023-12-29T09:57:07;95234.34;;;6.07;78.76
5550;BME280;2798;42.716;23.256;2023-12-29T09:59:34;95232.41;;;6.12;78.31
5550;BME280;2798;42.716;23.256;2023-12-29T10:02:02;95239.88;;;6.17;78.56
5550;BME280;2798;42.716;23.256;2023-12-29T10:04:28;95233.56;;;6.24;78.86
5550;BME280;2798;42.716;23.256;2023-12-29T10:06:54;95229.69;;;6.35;77.75
5550;BME280;2798;42.716;23.256;2023-12-29T10:09:22;95223.28;;;6.43;78.12
5550;BME280;2798;42.716;23.256;2023-12-29T10:11:49;95221.34;;;6.49;77.25
5550;BME280;2798;42.716;23.256;2023-12-29T10:14:22;95210.66;;;6.40;78.03
5550;BME280;2798;42.716;23.256;2023-12-29T10:16:50;95207.94;;;6.43;77.94
5550;BME280;2798;42.716;23.256;2023-12-29T10:21:48;95199.47;;;6.43;78.50
5550;BME280;2798;42.716;23.256;2023-12-29T10:24:20;95196.06;;;6.60;78.90
5550;BME280;2798;42.716;23.256;2023-12-29T10:26:46;95194.13;;;6.83;78.60
5550;BME280;2798;42.716;23.256;2023-12-29T10:29:12;95185.28;;;6.89;80.48
5550;BME280;2798;42.716;23.256;2023-12-29T10:31:38;95184.00;;;6.98;79.08
5550;BME280;2798;42.716;23.256;2023-12-29T10:34:19;95185.81;;;6.96;79.35
5550;BME280;2798;42.716;23.256;2023-12-29T10:36:48;95172.63;;;7.03;79.32
5550;BME280;2798;42.716;23.256;2023-12-29T10:39:14;95117.84;;;6.74;78.14
5550;BME280;2798;42.716;23.256;2023-12-29T10:41:40;95167.25;;;7.08;78.72
5550;BME280;2798;42.716;23.256;2023-12-29T10:44:08;95159.94;;;7.18;76.04
5550;BME280;2798;42.716;23.256;2023-12-29T10:46:34;95158.94;;;7.21;76.88
5550;BME280;2798;42.716;23.256;2023-12-29T10:49:06;95152.78;;;7.25;77.30
5550;BME280;2798;42.716;23.256;2023-12-29T10:51:33;95139.81;;;7.28;76.61
5550;BME280;2798;42.716;23.256;2023-12-29T10:53:58;95141.13;;;7.35;77.54
5550;BME280;2798;42.716;23.256;2023-12-29T10:56:24;95135.75;;;7.40;77.51
5550;BME280;2798;42.716;23.256;2023-12-29T10:59:02;95135.84;;;7.54;75.68
5550;BME280;2798;42.716;23.256;2023-12-29T11:01:29;95126.28;;;7.58;75.71
5550;BME280;2798;42.716;23.256;2023-12-29T11:04:04;95126.94;;;7.62;74.83
5550;BME280;2798;42.716;23.256;2023-12-29T11:06:30;95119.31;;;7.93;73.51
5550;BME280;2798;42.716;23.256;2023-12-29T11:09:04;95117.81;;;7.88;73.93
5550;BME280;2798;42.716;23.256;2023-12-29T11:11:30;95110.13;;;7.88;74.11
5550;BME280;2798;42.716;23.256;2023-12-29T11:13:56;95108.03;;;7.95;73.85
5550;BME280;2798;42.716;23.256;2023-12-29T11:16:21;95106.22;;;7.97;74.10
5550;BME280;2798;42.716;23.256;2023-12-29T11:18:49;95110.84;;;8.07;73.02
5550;BME280;2798;42.716;23.256;2023-12-29T11:21:16;95108.19;;;8.08;73.10
5550;BME280;2798;42.716;23.256;2023-12-29T11:23:42;95106.28;;;8.12;73.02
5550;BME280;2798;42.716;23.256;2023-12-29T11:26:07;95103.31;;;8.34;72.08
5550;BME280;2798;42.716;23.256;2023-12-29T11:28:33;95117.25;;;8.30;72.08
5550;BME280;2798;42.716;23.256;2023-12-29T11:30:58;95100.38;;;8.26;71.97
5550;BME280;2798;42.716;23.256;2023-12-29T11:33:26;95098.38;;;8.31;72.83
5550;BME280;2798;42.716;23.256;2023-12-29T11:35:56;95089.56;;;8.35;72.77
5550;BME280;2798;42.716;23.256;2023-12-29T11:43:43;95079.78;;;8.42;72.66
5550;BME280;2798;42.716;23.256;2023-12-29T11:48:56;95082.09;;;8.47;72.29
5550;BME280;2798;42.716;23.256;2023-12-29T11:51:35;95083.47;;;8.52;73.19
5550;BME280;2798;42.716;23.256;2023-12-29T11:54:01;95081.47;;;8.58;72.11
5550;BME280;2798;42.716;23.256;2023-12-29T11:56:30;95076.91;;;8.63;72.70
5550;BME280;2798;42.716;23.256;2023-12-29T11:58:56;95073.16;;;8.69;71.68
5550;BME280;2798;42.716;23.256;2023-12-29T12:01:34;95096.63;;;8.77;73.82
5550;BME280;2798;42.716;23.256;2023-12-29T12:04:01;95059.78;;;8.78;74.24
5550;BME280;2798;42.716;23.256;2023-12-29T12:06:39;95065.66;;;8.80;76.00
5550;BME280;2798;42.716;23.256;2023-12-29T12:12:02;95067.94;;;8.85;75.60
5550;BME280;2798;42.716;23.256;2023-12-29T12:17:10;95063.53;;;8.87;75.59
5550;BME280;2798;42.716;23.256;2023-12-29T12:19:35;95049.88;;;8.86;75.52
5550;BME280;2798;42.716;23.256;2023-12-29T12:22:01;95064.91;;;8.93;74.77
5550;BME280;2798;42.716;23.256;2023-12-29T12:24:27;95065.47;;;8.98;74.03
5550;BME280;2798;42.716;23.256;2023-12-29T12:26:52;95062.16;;;8.96;74.29
5550;BME280;2798;42.716;23.256;2023-12-29T12:29:18;95063.63;;;9.00;74.53
5550;BME280;2798;42.716;23.256;2023-12-29T12:31:56;95062.63;;;9.02;74.84
5550;BME280;2798;42.716;23.256;2023-12-29T12:34:22;95065.19;;;9.02;75.41
5550;BME280;2798;42.716;23.256;2023-12-29T12:36:48;95066.34;;;9.11;74.36
5550;BME280;2798;42.716;23.256;2023-12-29T12:39:15;95068.91;;;9.11;74.94
5550;BME280;2798;42.716;23.256;2023-12-29T12:41:40;95065.47;;;9.12;75.13
5550;BME280;2798;42.716;23.256;2023-12-29T12:46:33;95060.25;;;9.27;75.13
5550;BME280;2798;42.716;23.256;2023-12-29T12:49:00;95060.09;;;9.30;75.16
5550;BME280;2798;42.716;23.256;2023-12-29T12:51:25;95060.31;;;9.40;74.40
5550;BME280;2798;42.716;23.256;2023-12-29T12:53:51;95055.28;;;9.38;74.17
5550;BME280;2798;42.716;23.256;2023-12-29T12:56:18;95047.47;;;9.40;74.23
5550;BME280;2798;42.716;23.256;2023-12-29T12:58:44;95052.97;;;9.48;73.80
5550;BME280;2798;42.716;23.256;2023-12-29T13:01:10;95055.72;;;9.45;74.09
5550;BME280;2798;42.716;23.256;2023-12-29T13:03:36;95058.31;;;9.45;74.42
5550;BME280;2798;42.716;23.256;2023-12-29T13:06:03;95048.66;;;9.49;74.16
5550;BME280;2798;42.716;23.256;2023-12-29T13:08:29;95054.63;;;9.49;74.12
5550;BME280;2798;42.716;23.256;2023-12-29T13:10:55;95051.78;;;9.54;74.06
5550;BME280;2798;42.716;23.256;2023-12-29T13:13:21;95049.22;;;9.54;74.71
5550;BME280;2798;42.716;23.256;2023-12-29T13:15:50;95078.72;;;9.61;79.83
5550;BME280;2798;42.716;23.256;2023-12-29T13:18:16;95049.16;;;9.69;81.09
5550;BME280;2798;42.716;23.256;2023-12-29T13:20:47;95045.84;;;9.67;80.78
5550;BME280;2798;42.716;23.256;2023-12-29T13:23:13;95058.66;;;9.81;85.72
5550;BME280;2798;42.716;23.256;2023-12-29T13:25:39;95057.63;;;9.84;85.12
5550;BME280;2798;42.716;23.256;2023-12-29T13:28:05;95045.78;;;9.81;83.16
5550;BME280;2798;42.716;23.256;2023-12-29T13:30:33;95049.00;;;9.85;80.72
5550;BME280;2798;42.716;23.256;2023-12-29T13:32:58;95051.38;;;9.88;79.73
5550;BME280;2798;42.716;23.256;2023-12-29T13:35:32;95046.31;;;9.86;79.20
5550;BME280;2798;42.716;23.256;2023-12-29T13:38:07;95046.84;;;9.92;78.42
5550;BME280;2798;42.716;23.256;2023-12-29T13:43:08;95041.13;;;10.01;84.66